Time,TemperatureF,DewpointF,PressureIn,WindDirection,WindDirectionDegrees,WindSpeedMPH,WindSpeedGustMPH,Humidity,HourlyPrecipIn,Conditions,Clouds,dailyrainin,SolarRadiationWatts/m^2,SoftwareType,DateUTC
2013-09-17 08:55:00,56.3,41.7,30.51,NW,308,0.0,-999.0,58,0.87,,,0.87,104,WeatherHawk,2013-09-17 12:55:00,
2013-09-17 08:59:00,55.6,41.1,30.51,East,101,0.0,-999.0,58,0.87,,,0.87,98,WeatherHawk,2013-09-17 12:59:00,
2013-09-17 09:04:00,55.8,41.7,30.51,SE,136,0.0,-999.0,59,0.87,,,0.87,127,WeatherHawk,2013-09-17 13:04:00,
2013-09-17 09:09:00,57.1,42.0,30.50,WNW,285,0.0,-999.0,57,0.00,,,0.87,94,WeatherHawk,2013-09-17 13:09:00,
2013-09-17 09:14:00,57.1,41.1,30.51,WNW,287,0.0,-999.0,55,0.00,,,0.87,101,WeatherHawk,2013-09-17 13:14:00,
2013-09-17 09:19:00,57.7,41.2,30.50,SSW,203,0.0,-999.0,54,0.00,,,0.87,117,WeatherHawk,2013-09-17 13:19:00,
2013-09-17 09:24:00,56.5,39.5,30.50,SW,228,0.0,-999.0,53,0.00,,,0.87,122,WeatherHawk,2013-09-17 13:24:00,
2013-09-17 09:29:00,56.9,39.5,30.50,SW,219,0.0,-999.0,52,0.00,,,0.87,106,WeatherHawk,2013-09-17 13:29:00,
2013-09-17 09:34:00,57.4,38.9,30.51,NW,319,0.0,-999.0,50,0.00,,,0.87,155,WeatherHawk,2013-09-17 13:34:00,
2013-09-17 09:39:00,57.7,37.6,30.49,NNW,339,1.0,-999.0,47,0.00,,,0.87,190,WeatherHawk,2013-09-17 13:39:00,
2013-09-17 09:44:00,59.0,39.3,30.50,SW,229,0.0,-999.0,48,0.00,,,0.87,170,WeatherHawk,2013-09-17 13:44:00,
2013-09-17 09:49:00,59.9,39.1,30.49,South,190,0.0,-999.0,46,0.00,,,0.87,183,WeatherHawk,2013-09-17 13:49:00,
2013-09-17 09:54:00,60.5,38.5,30.50,WSW,242,0.0,-999.0,44,0.00,,,0.87,192,WeatherHawk,2013-09-17 13:54:00,
2013-09-17 09:59:00,59.8,36.6,30.49,SW,236,0.0,-999.0,42,0.00,,,0.87,275,WeatherHawk,2013-09-17 13:59:00,
2013-09-17 10:04:00,59.7,36.6,30.50,South,174,0.0,-999.0,42,0.00,,,0.87,162,WeatherHawk,2013-09-17 14:04:00,
2013-09-17 10:09:00,60.6,36.2,30.50,South,183,0.0,-999.0,40,0.00,,,0.87,403,WeatherHawk,2013-09-17 14:09:00,
2013-09-17 10:14:00,61.3,35.5,30.49,SSW,204,0.0,-999.0,38,0.00,,,0.87,306,WeatherHawk,2013-09-17 14:14:00,
2013-09-17 10:19:00,62.3,33.6,30.49,West,268,0.0,-999.0,34,0.00,,,0.87,325,WeatherHawk,2013-09-17 14:19:00,
2013-09-17 10:24:00,60.8,30.7,30.50,SW,227,0.0,-999.0,32,0.00,,,0.87,131,WeatherHawk,2013-09-17 14:24:00,
2013-09-17 10:29:00,63.9,31.1,30.49,WNW,303,1.0,-999.0,29,0.00,,,0.87,471,WeatherHawk,2013-09-17 14:29:00,
2013-09-17 10:34:00,64.7,29.9,30.49,SE,137,0.0,-999.0,27,0.00,,,0.87,483,WeatherHawk,2013-09-17 14:34:00,
2013-09-17 10:39:00,66.2,30.3,30.48,NW,326,0.0,-999.0,26,0.00,,,0.87,498,WeatherHawk,2013-09-17 14:39:00,
2013-09-17 10:44:00,64.7,24.9,30.49,West,269,0.0,-999.0,22,0.00,,,0.87,490,WeatherHawk,2013-09-17 14:44:00,
2013-09-17 10:49:00,63.9,23.2,30.48,SE,129,0.0,-999.0,21,0.00,,,0.87,517,WeatherHawk,2013-09-17 14:49:00,
2013-09-17 10:54:00,66.7,23.1,30.47,SSW,211,0.0,-999.0,19,0.00,,,0.87,529,WeatherHawk,2013-09-17 14:54:00,
2013-09-17 10:59:00,65.2,21.9,30.48,North,351,0.0,-999.0,19,0.00,,,0.87,540,WeatherHawk,2013-09-17 14:59:00,
2013-09-17 11:04:00,68.7,23.5,30.47,East,92,0.0,-999.0,18,0.00,,,0.87,550,WeatherHawk,2013-09-17 15:04:00,
2013-09-17 11:09:00,67.9,20.1,30.47,NNE,29,0.0,-999.0,16,0.00,,,0.87,569,WeatherHawk,2013-09-17 15:09:00,
2013-09-17 11:14:00,69.4,18.1,30.47,South,183,1.0,-999.0,14,0.00,,,0.87,581,WeatherHawk,2013-09-17 15:14:00,
2013-09-17 11:19:00,68.5,15.7,30.47,SSE,167,2.0,-999.0,13,0.00,,,0.87,597,WeatherHawk,2013-09-17 15:19:00,
2013-09-17 11:24:00,70.4,15.3,30.47,West,271,0.0,-999.0,12,0.00,,,0.87,604,WeatherHawk,2013-09-17 15:24:00,
2013-09-17 11:29:00,68.2,13.7,30.46,South,181,0.0,-999.0,12,0.00,,,0.87,619,WeatherHawk,2013-09-17 15:29:00,
2013-09-17 11:34:00,73.3,15.6,30.46,WSW,241,0.0,-999.0,11,0.00,,,0.87,630,WeatherHawk,2013-09-17 15:34:00,
2013-09-17 11:39:00,71.6,14.3,30.46,SW,227,0.0,-999.0,11,0.00,,,0.87,643,WeatherHawk,2013-09-17 15:39:00,
2013-09-17 11:44:00,71.3,14.1,30.46,SSW,195,1.0,-999.0,11,0.00,,,0.87,666,WeatherHawk,2013-09-17 15:44:00,
2013-09-17 11:49:00,74.2,9.1,30.46,SSE,157,0.0,-999.0,8,0.00,,,0.87,668,WeatherHawk,2013-09-17 15:49:00,
2013-09-17 11:54:00,70.3,11.2,30.46,SSE,149,1.0,-999.0,10,0.00,,,0.87,682,WeatherHawk,2013-09-17 15:54:00,
2013-09-17 11:59:00,75.3,9.9,30.46,West,281,0.0,-999.0,8,0.00,,,0.87,688,WeatherHawk,2013-09-17 15:59:00,
2013-09-17 12:09:00,73.6,8.7,30.46,North,3,0.0,-999.0,8,0.00,,,0.87,712,WeatherHawk,2013-09-17 16:09:00,
2013-09-17 12:14:00,75.8,7.3,30.46,SSW,195,0.0,-999.0,7,0.00,,,0.87,725,WeatherHawk,2013-09-17 16:14:00,
2013-09-17 12:19:00,74.2,2.9,30.45,South,175,2.0,-999.0,6,0.00,,,0.87,729,WeatherHawk,2013-09-17 16:19:00,
2013-09-17 12:24:00,75.4,10.0,30.44,NNW,334,0.0,-999.0,8,0.00,,,0.87,736,WeatherHawk,2013-09-17 16:24:00,
2013-09-17 12:29:00,74.1,-1.1,30.45,South,171,2.0,-999.0,5,0.00,,,0.87,742,WeatherHawk,2013-09-17 16:29:00,
2013-09-17 12:34:00,77.0,8.2,30.44,NW,318,2.0,-999.0,7,0.00,,,0.87,748,WeatherHawk,2013-09-17 16:34:00,
2013-09-17 12:39:00,75.0,6.7,30.44,ESE,112,1.0,-999.0,7,0.00,,,0.87,734,WeatherHawk,2013-09-17 16:39:00,
2013-09-17 12:44:00,74.3,-1.0,30.44,ESE,116,4.0,-999.0,5,0.00,,,0.87,751,WeatherHawk,2013-09-17 16:44:00,
2013-09-17 12:49:00,72.8,1.8,30.45,WNW,300,1.0,-999.0,6,0.00,,,0.87,749,WeatherHawk,2013-09-17 16:49:00,
2013-09-17 12:54:00,74.0,2.7,30.45,South,180,0.0,-999.0,6,0.00,,,0.87,736,WeatherHawk,2013-09-17 16:54:00,
2013-09-17 12:59:00,75.1,-0.4,30.44,East,92,1.0,-999.0,5,0.00,,,0.87,744,WeatherHawk,2013-09-17 16:59:00,
2013-09-17 13:04:00,76.8,4.7,30.44,SW,232,0.0,-999.0,6,0.00,,,0.87,771,WeatherHawk,2013-09-17 17:04:00,
2013-09-17 13:09:00,71.4,0.8,30.43,SSW,207,4.0,-999.0,6,0.00,,,0.87,759,WeatherHawk,2013-09-17 17:09:00,
2013-09-17 13:14:00,77.0,8.2,30.43,WSW,237,1.0,-999.0,7,0.00,,,0.87,765,WeatherHawk,2013-09-17 17:14:00,
2013-09-17 13:19:00,75.7,7.3,30.43,WSW,242,0.0,-999.0,7,0.00,,,0.87,766,WeatherHawk,2013-09-17 17:19:00,
2013-09-17 13:24:00,77.7,8.7,30.43,SSW,213,1.0,-999.0,7,0.00,,,0.87,761,WeatherHawk,2013-09-17 17:24:00,
2013-09-17 13:29:00,79.6,2.7,30.43,SSE,168,0.0,-999.0,5,0.00,,,0.87,770,WeatherHawk,2013-09-17 17:29:00,
2013-09-17 13:34:00,76.4,4.4,30.43,East,91,1.0,-999.0,6,0.00,,,0.87,792,WeatherHawk,2013-09-17 17:34:00,
2013-09-17 13:39:00,78.7,6.1,30.42,SW,217,0.0,-999.0,6,0.00,,,0.87,787,WeatherHawk,2013-09-17 17:39:00,
2013-09-17 13:44:00,76.2,4.3,30.42,SSE,153,1.0,-999.0,6,0.00,,,0.87,718,WeatherHawk,2013-09-17 17:44:00,
2013-09-17 13:49:00,81.6,4.1,30.41,ESE,117,0.0,-999.0,5,0.00,,,0.87,795,WeatherHawk,2013-09-17 17:49:00,
2013-09-17 13:54:00,78.3,1.8,30.41,South,175,0.0,-999.0,5,0.00,,,0.87,797,WeatherHawk,2013-09-17 17:54:00,
2013-09-17 13:59:00,81.8,4.3,30.41,NW,320,0.0,-999.0,5,0.00,,,0.87,602,WeatherHawk,2013-09-17 17:59:00,
2013-09-17 14:04:00,78.3,5.8,30.40,ESE,118,2.0,-999.0,6,0.00,,,0.87,707,WeatherHawk,2013-09-17 18:04:00,
2013-09-17 14:09:00,77.9,5.5,30.40,SSE,159,1.0,-999.0,6,0.00,,,0.87,655,WeatherHawk,2013-09-17 18:09:00,
2013-09-17 14:14:00,79.1,6.3,30.40,NW,311,0.0,-999.0,6,0.00,,,0.87,683,WeatherHawk,2013-09-17 18:14:00,
2013-09-17 14:19:00,79.2,9.8,30.41,NW,307,0.0,-999.0,7,0.00,,,0.87,657,WeatherHawk,2013-09-17 18:19:00,
2013-09-17 14:24:00,77.5,1.3,30.40,West,267,0.0,-999.0,5,0.00,,,0.87,565,WeatherHawk,2013-09-17 18:24:00,
2013-09-17 14:29:00,78.9,6.2,30.39,SSE,150,1.0,-999.0,6,0.00,,,0.87,692,WeatherHawk,2013-09-17 18:29:00,
2013-09-17 14:34:00,79.1,-2.4,30.40,East,87,1.0,-999.0,4,0.00,,,0.87,772,WeatherHawk,2013-09-17 18:34:00,
2013-09-17 14:39:00,79.7,2.9,30.40,WNW,286,0.0,-999.0,5,0.00,,,0.87,765,WeatherHawk,2013-09-17 18:39:00,
2013-09-17 14:44:00,77.8,1.5,30.40,South,174,1.0,-999.0,5,0.00,,,0.87,717,WeatherHawk,2013-09-17 18:44:00,
2013-09-17 14:49:00,77.3,-3.6,30.39,SSE,167,1.0,-999.0,4,0.00,,,0.87,670,WeatherHawk,2013-09-17 18:49:00,
2013-09-17 14:54:00,77.3,-3.6,30.38,South,182,2.0,-999.0,4,0.00,,,0.87,530,WeatherHawk,2013-09-17 18:54:00,
2013-09-17 14:59:00,78.7,6.1,30.38,SW,214,1.0,-999.0,6,0.00,,,0.87,643,WeatherHawk,2013-09-17 18:59:00,
2013-09-17 15:04:00,82.0,-0.3,30.38,WNW,301,0.0,-999.0,4,0.00,,,0.87,711,WeatherHawk,2013-09-17 19:04:00,
2013-09-17 15:09:00,79.7,6.8,30.38,WSW,251,0.0,-999.0,6,0.00,,,0.87,660,WeatherHawk,2013-09-17 19:09:00,
2013-09-17 15:14:00,79.2,6.5,30.37,SW,226,2.0,-999.0,6,0.00,,,0.87,662,WeatherHawk,2013-09-17 19:14:00,
2013-09-17 15:19:00,82.1,8.5,30.37,SSE,160,0.0,-999.0,6,0.00,,,0.87,698,WeatherHawk,2013-09-17 19:19:00,
2013-09-17 15:24:00,78.6,2.0,30.37,ESE,113,1.0,-999.0,5,0.00,,,0.87,537,WeatherHawk,2013-09-17 19:24:00,
2013-09-17 15:29:00,79.8,6.8,30.38,SW,225,1.0,-999.0,6,0.00,,,0.87,650,WeatherHawk,2013-09-17 19:29:00,
2013-09-17 15:34:00,80.6,7.4,30.37,SSW,210,1.0,-999.0,6,0.00,,,0.87,670,WeatherHawk,2013-09-17 19:34:00,
2013-09-17 15:39:00,80.2,7.2,30.37,SE,138,1.0,-999.0,6,0.00,,,0.87,646,WeatherHawk,2013-09-17 19:39:00,
2013-09-17 15:44:00,77.6,1.4,30.36,SSE,164,3.0,-999.0,5,0.00,,,0.87,571,WeatherHawk,2013-09-17 19:44:00,
2013-09-17 15:49:00,75.9,-4.5,30.36,West,262,3.0,-999.0,4,0.00,,,0.87,529,WeatherHawk,2013-09-17 19:49:00,
2013-09-17 15:54:00,79.2,-2.3,30.36,NW,323,0.0,-999.0,4,0.00,,,0.87,509,WeatherHawk,2013-09-17 19:54:00,
2013-09-17 15:59:00,77.8,1.5,30.37,North,11,1.0,-999.0,5,0.00,,,0.87,530,WeatherHawk,2013-09-17 19:59:00,
2013-09-17 16:04:00,77.8,-3.2,30.37,NNE,32,0.0,-999.0,4,0.00,,,0.87,454,WeatherHawk,2013-09-17 20:04:00,
2013-09-17 16:09:00,79.3,2.5,30.37,South,189,2.0,-999.0,5,0.00,,,0.87,531,WeatherHawk,2013-09-17 20:09:00,
2013-09-17 16:14:00,82.0,4.4,30.37,ESE,116,1.0,-999.0,5,0.00,,,0.87,409,WeatherHawk,2013-09-17 20:14:00,
2013-09-17 16:19:00,76.4,7.8,30.36,East,94,0.0,-999.0,7,0.00,,,0.87,172,WeatherHawk,2013-09-17 20:19:00,
2013-09-17 16:24:00,76.9,4.8,30.37,SSW,199,0.0,-999.0,6,0.00,,,0.87,384,WeatherHawk,2013-09-17 20:24:00,
2013-09-17 16:29:00,77.5,5.2,30.37,SW,224,1.0,-999.0,6,0.00,,,0.87,255,WeatherHawk,2013-09-17 20:29:00,
2013-09-17 16:34:00,79.1,9.8,30.36,West,273,0.0,-999.0,7,0.00,,,0.87,482,WeatherHawk,2013-09-17 20:34:00,
2013-09-17 16:39:00,79.4,2.6,30.37,ESE,123,0.0,-999.0,5,0.00,,,0.87,407,WeatherHawk,2013-09-17 20:39:00,
2013-09-17 16:44:00,80.6,7.4,30.36,WSW,246,0.0,-999.0,6,0.00,,,0.87,392,WeatherHawk,2013-09-17 20:44:00,
2013-09-17 16:49:00,79.3,6.5,30.37,WSW,255,0.0,-999.0,6,0.00,,,0.87,455,WeatherHawk,2013-09-17 20:49:00,
2013-09-17 16:54:00,79.9,-1.8,30.37,WSW,255,0.0,-999.0,4,0.00,,,0.87,433,WeatherHawk,2013-09-17 20:54:00,
2013-09-17 17:04:00,76.8,8.1,30.36,SE,126,3.0,-999.0,7,0.00,,,0.87,362,WeatherHawk,2013-09-17 21:04:00,
2013-09-17 17:09:00,81.1,11.2,30.36,NW,317,0.0,-999.0,7,0.00,,,0.87,372,WeatherHawk,2013-09-17 21:09:00,
2013-09-17 17:14:00,79.6,10.1,30.35,SW,227,0.0,-999.0,7,0.00,,,0.87,343,WeatherHawk,2013-09-17 21:14:00,
2013-09-17 17:19:00,79.0,2.3,30.36,South,170,0.0,-999.0,5,0.00,,,0.87,342,WeatherHawk,2013-09-17 21:19:00,
2013-09-17 17:24:00,78.9,6.2,30.35,SW,230,0.0,-999.0,6,0.00,,,0.87,349,WeatherHawk,2013-09-17 21:24:00,
2013-09-17 17:29:00,79.7,10.2,30.36,SW,226,0.0,-999.0,7,0.00,,,0.87,358,WeatherHawk,2013-09-17 21:29:00,
2013-09-17 17:34:00,80.6,7.4,30.36,WSW,242,0.0,-999.0,6,0.00,,,0.87,266,WeatherHawk,2013-09-17 21:34:00,
2013-09-17 17:39:00,77.3,8.4,30.35,SW,222,1.0,-999.0,7,0.00,,,0.87,322,WeatherHawk,2013-09-17 21:39:00,
2013-09-17 17:44:00,78.9,9.6,30.35,SW,228,0.0,-999.0,7,0.00,,,0.87,356,WeatherHawk,2013-09-17 21:44:00,
2013-09-17 17:49:00,80.1,13.5,30.36,SW,236,0.0,-999.0,8,0.00,,,0.87,262,WeatherHawk,2013-09-17 21:49:00,
2013-09-17 17:54:00,79.5,2.7,30.35,SW,225,0.0,-999.0,5,0.00,,,0.87,348,WeatherHawk,2013-09-17 21:54:00,
2013-09-17 17:59:00,78.9,6.2,30.35,WSW,251,0.0,-999.0,6,0.00,,,0.87,338,WeatherHawk,2013-09-17 21:59:00,
2013-09-17 18:04:00,81.5,8.1,30.35,SSW,198,0.0,-999.0,6,0.00,,,0.87,324,WeatherHawk,2013-09-17 22:04:00,
2013-09-17 18:09:00,78.3,1.9,30.35,SW,220,0.0,-999.0,5,0.00,,,0.87,154,WeatherHawk,2013-09-17 22:09:00,
2013-09-17 18:14:00,76.6,10.9,30.35,SW,216,0.0,-999.0,8,0.00,,,0.87,163,WeatherHawk,2013-09-17 22:14:00,
2013-09-17 18:19:00,77.9,5.5,30.35,SW,228,0.0,-999.0,6,0.00,,,0.87,269,WeatherHawk,2013-09-17 22:19:00,
2013-09-17 18:24:00,77.5,11.6,30.35,South,182,0.0,-999.0,8,0.00,,,0.87,168,WeatherHawk,2013-09-17 22:24:00,
2013-09-17 18:29:00,75.9,10.4,30.36,SW,234,0.0,-999.0,8,0.00,,,0.87,148,WeatherHawk,2013-09-17 22:29:00,
2013-09-17 18:34:00,74.7,12.1,30.36,SSW,208,0.0,-999.0,9,0.00,,,0.87,79,WeatherHawk,2013-09-17 22:34:00,
2013-09-17 18:39:00,73.4,17.7,30.35,SW,217,0.0,-999.0,12,0.00,,,0.87,62,WeatherHawk,2013-09-17 22:39:00,
2013-09-17 18:44:00,74.5,22.2,30.35,SW,216,0.0,-999.0,14,0.00,,,0.87,110,WeatherHawk,2013-09-17 22:44:00,
2013-09-17 18:49:00,71.9,21.8,30.37,SW,215,0.0,-999.0,15,0.00,,,0.87,45,WeatherHawk,2013-09-17 22:49:00,
2013-09-17 18:54:00,72.5,25.2,30.36,SW,214,0.0,-999.0,17,0.00,,,0.87,75,WeatherHawk,2013-09-17 22:54:00,
2013-09-17 18:59:00,72.4,26.5,30.37,SW,214,0.0,-999.0,18,0.00,,,0.87,76,WeatherHawk,2013-09-17 22:59:00,
2013-09-17 19:04:00,70.2,27.2,30.36,SW,214,0.0,-999.0,20,0.00,,,0.87,48,WeatherHawk,2013-09-17 23:04:00,
2013-09-17 19:09:00,69.7,29.2,30.37,SSW,213,0.0,-999.0,22,0.00,,,0.87,41,WeatherHawk,2013-09-17 23:09:00,
2013-09-17 19:14:00,68.3,31.1,30.37,SW,225,0.0,-999.0,25,0.00,,,0.87,27,WeatherHawk,2013-09-17 23:14:00,
2013-09-17 19:19:00,68.1,31.9,30.36,SW,225,0.0,-999.0,26,0.00,,,0.87,27,WeatherHawk,2013-09-17 23:19:00,
2013-09-17 19:24:00,67.2,33.0,30.38,SW,225,0.0,-999.0,28,0.00,,,0.87,13,WeatherHawk,2013-09-17 23:24:00,
2013-09-17 19:29:00,66.2,34.7,30.37,SW,225,0.0,-999.0,31,0.00,,,0.87,5,WeatherHawk,2013-09-17 23:29:00,
2013-09-17 19:34:00,65.4,34.8,30.38,SW,225,0.0,-999.0,32,0.00,,,0.87,3,WeatherHawk,2013-09-17 23:34:00,
2013-09-17 19:39:00,65.2,36.1,30.37,SW,225,0.0,-999.0,34,0.00,,,0.87,3,WeatherHawk,2013-09-17 23:39:00,
2013-09-17 19:44:00,64.9,38.0,30.37,SW,225,0.0,-999.0,37,0.00,,,0.87,1,WeatherHawk,2013-09-17 23:44:00,
2013-09-17 19:49:00,64.0,37.9,30.39,SSE,165,0.0,-999.0,38,0.00,,,0.87,0,WeatherHawk,2013-09-17 23:49:00,
2013-09-17 19:54:00,63.7,38.3,30.38,SSE,165,0.0,-999.0,39,0.00,,,0.87,1,WeatherHawk,2013-09-17 23:54:00,
2013-09-17 19:59:00,63.6,38.9,30.38,SSE,165,0.0,-999.0,40,0.00,,,0.87,0,WeatherHawk,2013-09-17 23:59:00,
2013-09-17 20:04:00,63.6,39.5,30.39,SSE,166,0.0,-999.0,41,0.00,,,0.87,0,WeatherHawk,2013-09-18 00:04:00,
2013-09-17 20:09:00,62.8,39.4,30.38,SSE,166,0.0,-999.0,42,0.00,,,0.87,1,WeatherHawk,2013-09-18 00:09:00,
2013-09-17 20:14:00,62.7,39.9,30.39,SSE,166,0.0,-999.0,43,0.00,,,0.87,0,WeatherHawk,2013-09-18 00:14:00,
2013-09-17 20:19:00,62.4,40.8,30.39,SSE,166,0.0,-999.0,45,0.00,,,0.87,0,WeatherHawk,2013-09-18 00:19:00,
2013-09-17 20:24:00,62.2,41.2,30.39,SSE,166,0.0,-999.0,46,0.00,,,0.87,0,WeatherHawk,2013-09-18 00:24:00,
2013-09-17 20:29:00,61.7,41.8,30.39,WNW,295,0.0,-999.0,48,0.00,,,0.87,0,WeatherHawk,2013-09-18 00:29:00,
2013-09-17 20:34:00,61.8,41.9,30.39,WNW,284,0.0,-999.0,48,0.00,,,0.87,0,WeatherHawk,2013-09-18 00:34:00,
2013-09-17 20:39:00,61.6,42.3,30.40,SSW,207,0.0,-999.0,49,0.00,,,0.87,1,WeatherHawk,2013-09-18 00:39:00,
2013-09-17 20:44:00,61.7,42.4,30.40,SSW,211,0.0,-999.0,49,0.00,,,0.87,0,WeatherHawk,2013-09-18 00:44:00,
2013-09-17 20:49:00,61.5,42.2,30.40,NW,306,0.0,-999.0,49,0.00,,,0.87,0,WeatherHawk,2013-09-18 00:49:00,
2013-09-17 20:54:00,61.5,42.2,30.41,WNW,290,0.0,-999.0,49,0.00,,,0.87,1,WeatherHawk,2013-09-18 00:54:00,
2013-09-17 20:59:00,61.7,42.3,30.40,WSW,249,0.0,-999.0,49,0.00,,,0.87,0,WeatherHawk,2013-09-18 00:59:00,
2013-09-17 21:04:00,61.5,41.6,30.39,WSW,249,0.0,-999.0,48,0.00,,,0.87,0,WeatherHawk,2013-09-18 01:04:00,
2013-09-17 21:09:00,61.7,42.4,30.40,SW,234,0.0,-999.0,49,0.00,,,0.87,0,WeatherHawk,2013-09-18 01:09:00,
2013-09-17 21:14:00,62.0,42.1,30.41,SW,232,0.0,-999.0,48,0.00,,,0.87,0,WeatherHawk,2013-09-18 01:14:00,
2013-09-17 21:19:00,61.6,41.7,30.41,SW,223,0.0,-999.0,48,0.00,,,0.87,0,WeatherHawk,2013-09-18 01:19:00,
2013-09-17 21:24:00,61.3,41.4,30.40,SW,229,0.0,-999.0,48,0.00,,,0.87,0,WeatherHawk,2013-09-18 01:24:00,
2013-09-17 21:29:00,61.6,41.2,30.41,SW,226,0.0,-999.0,47,0.00,,,0.87,0,WeatherHawk,2013-09-18 01:29:00,
2013-09-17 21:34:00,61.8,41.3,30.41,SW,225,0.0,-999.0,47,0.00,,,0.87,0,WeatherHawk,2013-09-18 01:34:00,
2013-09-17 21:39:00,62.2,41.2,30.41,SSW,203,0.0,-999.0,46,0.00,,,0.87,0,WeatherHawk,2013-09-18 01:39:00,
2013-09-17 21:44:00,61.7,40.7,30.41,SW,222,0.0,-999.0,46,0.00,,,0.87,0,WeatherHawk,2013-09-18 01:44:00,
2013-09-17 21:49:00,61.2,40.8,30.42,SSW,194,0.0,-999.0,47,0.00,,,0.87,0,WeatherHawk,2013-09-18 01:49:00,
2013-09-17 21:54:00,61.4,40.4,30.41,SW,223,0.0,-999.0,46,0.00,,,0.87,1,WeatherHawk,2013-09-18 01:54:00,
2013-09-17 21:59:00,61.9,40.9,30.41,SW,221,0.0,-999.0,46,0.00,,,0.87,0,WeatherHawk,2013-09-18 01:59:00,
2013-09-17 22:04:00,61.8,40.3,30.41,West,280,0.0,-999.0,45,0.00,,,0.87,0,WeatherHawk,2013-09-18 02:04:00,
2013-09-17 22:09:00,61.5,40.5,30.41,SSW,213,0.0,-999.0,46,0.00,,,0.87,0,WeatherHawk,2013-09-18 02:09:00,
2013-09-17 22:14:00,63.1,39.6,30.41,SSW,212,0.0,-999.0,42,0.00,,,0.87,1,WeatherHawk,2013-09-18 02:14:00,
2013-09-17 22:19:00,63.3,38.6,30.41,SW,217,0.0,-999.0,40,0.00,,,0.87,0,WeatherHawk,2013-09-18 02:19:00,
2013-09-17 22:24:00,63.9,37.1,30.41,South,176,0.0,-999.0,37,0.00,,,0.87,1,WeatherHawk,2013-09-18 02:24:00,
2013-09-17 22:29:00,64.3,36.0,30.41,NE,42,0.0,-999.0,35,0.00,,,0.87,0,WeatherHawk,2013-09-18 02:29:00,
2013-09-17 22:34:00,64.0,36.5,30.41,SSW,195,0.0,-999.0,36,0.00,,,0.87,0,WeatherHawk,2013-09-18 02:34:00,
2013-09-17 22:39:00,63.2,35.8,30.40,North,349,0.0,-999.0,36,0.00,,,0.87,1,WeatherHawk,2013-09-18 02:39:00,
2013-09-17 22:44:00,62.4,35.1,30.41,WSW,241,0.0,-999.0,36,0.00,,,0.87,1,WeatherHawk,2013-09-18 02:44:00,
2013-09-17 22:49:00,63.0,37.0,30.41,South,186,0.0,-999.0,38,0.00,,,0.87,0,WeatherHawk,2013-09-18 02:49:00,
2013-09-17 22:59:00,62.5,36.5,30.41,WSW,253,0.0,-999.0,38,0.00,,,0.87,0,WeatherHawk,2013-09-18 02:59:00,
2013-09-17 23:04:00,62.1,36.8,30.41,SSE,157,0.0,-999.0,39,0.00,,,0.87,0,WeatherHawk,2013-09-18 03:04:00,
2013-09-17 23:09:00,61.9,36.7,30.41,WSW,242,0.0,-999.0,39,0.00,,,0.87,0,WeatherHawk,2013-09-18 03:09:00,
2013-09-17 23:14:00,61.3,36.8,30.41,ESE,113,0.0,-999.0,40,0.00,,,0.87,0,WeatherHawk,2013-09-18 03:14:00,
2013-09-17 23:19:00,61.3,36.8,30.40,NNE,14,0.0,-999.0,40,0.00,,,0.87,1,WeatherHawk,2013-09-18 03:19:00,
2013-09-17 23:24:00,60.5,37.9,30.41,South,179,0.0,-999.0,43,0.00,,,0.87,0,WeatherHawk,2013-09-18 03:24:00,
2013-09-17 23:29:00,62.0,38.6,30.41,South,180,0.0,-999.0,42,0.00,,,0.87,0,WeatherHawk,2013-09-18 03:29:00,
2013-09-17 23:34:00,60.9,37.6,30.42,WSW,256,0.0,-999.0,42,0.00,,,0.87,0,WeatherHawk,2013-09-18 03:34:00,
2013-09-17 23:39:00,60.0,39.2,30.41,SW,215,0.0,-999.0,46,0.00,,,0.87,0,WeatherHawk,2013-09-18 03:39:00,
2013-09-17 23:44:00,60.0,39.1,30.41,SSW,198,0.0,-999.0,46,0.00,,,0.87,0,WeatherHawk,2013-09-18 03:44:00,
2013-09-17 23:49:00,59.3,39.6,30.42,SSW,198,0.0,-999.0,48,0.00,,,0.87,0,WeatherHawk,2013-09-18 03:49:00,
2013-09-17 23:54:00,59.0,40.9,30.41,SSW,212,0.0,-999.0,51,0.00,,,0.87,1,WeatherHawk,2013-09-18 03:54:00,